TCB weather

Treasure Cay Airport
Treasure Cay, Marsh Harbour, Bahamas

Public forecast

Using degrees Celsius for public forecast. Weather courtesy of forecast.io.

METAR (pilot weather report)

Report is more than 2 hours old.

Closest report is Grand Bahama International Airport, 70.9 nm (131.3 km) W. Retrieved 2019/09/15 23:00 UTC (2 hours ago):

MYGF 152300Z 28012KT 9000 VCSH FEW015CB SCT050 BKN250 ///// A2987 RMK RETS RESH

TAF (pilot weather forecast)

Forecast is more than 12 hours old.

Closest forecast is Grand Bahama International Airport, 70.9 nm (131.3 km) W. Retrieved 2019/09/15 00:42 UTC (1 day ago):

TAF MYGF 152230Z 1600/1624 26008G18KT 7000 TSRA SCT015CB SCT050 BKN200 FM160600 27010KT 9999 VCSH FEW018CB SCT020 BKN200